PWSweather.com
Personal Weather Stations
Station Observations
KWIATHEL1
Marinette County, Athelstane, WI 54104

Marinette CountyAthelstane, WI 54104

Lat: 45.4, Lon: -88.12

Elevation: 960

Station Type: OS WM-918

http://weather.athelstanewi.com

Latest ConditionsUpdated 6:30:42 AM CDT Tuesday, Sep 2, 2014
Currently Today's Max Today's Min Today's Average
Temperature 50.2°F10.1°C 55.6°F13.1°C 50.2°F10.1°C 53.0°F11.7°C
Dew Point 49.4°F9.7°C 53.3°F11.8°C 49.4°F9.7°C 51.7°F10.9°C
Winds Calm Calm Calm WCalm W - Calm Calm
Wind Gusts -- -- - -
Humidity 97% 97% 92% 95%
Pressure 29.80 in1009.1 mb 29.80 in1009.1 mb 29.75 in1007.5 mb -
Hour Temp Dew Point Humidity Winds Wind Gusts Pressure Precip Precip Rate Daily Precip Total
06:30 AM 50.2°F10.1°C 49.4°F9.7°C 97% Calm Calm -- 29.80 in1009.1 mb 0.00 in0.0 mm 0.00 in/hr0.0 mm/hr 0.00 in0.0 mm
06:15 AM 50.2°F10.1°C 49.4°F9.7°C 97% Calm Calm -- 29.80 in1009.1 mb 0.00 in0.0 mm 0.00 in/hr0.0 mm/hr 0.00 in0.0 mm
06:00 AM 50.7°F10.4°C 49.9°F9.9°C 97% Calm Calm -- 29.80 in1009.1 mb 0.00 in0.0 mm 0.00 in/hr0.0 mm/hr 0.00 in0.0 mm
05:45 AM 51.3°F10.7°C 50.4°F10.2°C 97% Calm Calm -- 29.80 in1009.1 mb 0.00 in0.0 mm 0.00 in/hr0.0 mm/hr 0.00 in0.0 mm
05:30 AM 51.3°F10.7°C 50.4°F10.2°C 97% Calm Calm -- 29.80 in1009.1 mb 0.00 in0.0 mm 0.00 in/hr0.0 mm/hr 0.00 in0.0 mm
05:15 AM 51.6°F10.9°C 50.8°F10.4°C 97% Calm Calm -- 29.80 in1009.1 mb 0.00 in0.0 mm 0.00 in/hr0.0 mm/hr 0.00 in0.0 mm
05:00 AM 51.4°F10.8°C 50.6°F10.3°C 97% Calm Calm -- 29.78 in1008.5 mb 0.00 in0.0 mm 0.00 in/hr0.0 mm/hr 0.00 in0.0 mm
04:45 AM 51.3°F10.7°C 50.2°F10.1°C 96% Calm Calm -- 29.78 in1008.5 mb 0.00 in0.0 mm 0.00 in/hr0.0 mm/hr 0.00 in0.0 mm
04:30 AM 52.2°F11.2°C 51.1°F10.6°C 96% Calm Calm -- 29.78 in1008.5 mb 0.00 in0.0 mm 0.00 in/hr0.0 mm/hr 0.00 in0.0 mm
04:15 AM 52.7°F11.5°C 51.6°F10.9°C 96% Calm Calm -- 29.78 in1008.5 mb 0.00 in0.0 mm 0.00 in/hr0.0 mm/hr 0.00 in0.0 mm
04:00 AM 52.9°F11.6°C 51.8°F11.0°C 96% Calm Calm -- 29.78 in1008.5 mb 0.00 in0.0 mm 0.00 in/hr0.0 mm/hr 0.00 in0.0 mm
03:45 AM 53.1°F11.7°C 52.0°F11.1°C 96% Calm Calm -- 29.78 in1008.5 mb 0.00 in0.0 mm 0.00 in/hr0.0 mm/hr 0.00 in0.0 mm
03:30 AM 53.6°F12.0°C 52.5°F11.4°C 96% Calm Calm -- 29.78 in1008.5 mb 0.00 in0.0 mm 0.00 in/hr0.0 mm/hr 0.00 in0.0 mm
03:15 AM 53.2°F11.8°C 52.1°F11.2°C 96% Calm Calm -- 29.78 in1008.5 mb 0.00 in0.0 mm 0.00 in/hr0.0 mm/hr 0.00 in0.0 mm
03:00 AM 53.1°F11.7°C 51.7°F10.9°C 95% Calm Calm -- 29.78 in1008.5 mb 0.00 in0.0 mm 0.00 in/hr0.0 mm/hr 0.00 in0.0 mm
02:45 AM 53.4°F11.9°C 52.0°F11.1°C 95% Calm Calm -- 29.78 in1008.5 mb 0.00 in0.0 mm 0.00 in/hr0.0 mm/hr 0.00 in0.0 mm
02:30 AM 53.6°F12.0°C 52.2°F11.2°C 95% Calm Calm -- 29.78 in1008.5 mb 0.00 in0.0 mm 0.00 in/hr0.0 mm/hr 0.00 in0.0 mm
02:15 AM 54.1°F12.3°C 52.7°F11.5°C 95% Calm Calm -- 29.78 in1008.5 mb 0.00 in0.0 mm 0.00 in/hr0.0 mm/hr 0.00 in0.0 mm
02:00 AM 54.5°F12.5°C 53.1°F11.7°C 95% Calm Calm -- 29.78 in1008.5 mb 0.00 in0.0 mm 0.00 in/hr0.0 mm/hr 0.00 in0.0 mm
01:45 AM 54.3°F12.4°C 52.9°F11.6°C 95% Calm Calm -- 29.80 in1009.1 mb 0.00 in0.0 mm 0.00 in/hr0.0 mm/hr 0.00 in0.0 mm
01:30 AM 54.0°F12.2°C 52.3°F11.3°C 94% Calm Calm -- 29.80 in1009.1 mb 0.00 in0.0 mm 0.00 in/hr0.0 mm/hr 0.00 in0.0 mm
01:15 AM 54.3°F12.4°C 52.6°F11.4°C 94% Calm Calm -- 29.78 in1008.5 mb 0.00 in0.0 mm 0.00 in/hr0.0 mm/hr 0.00 in0.0 mm
01:00 AM 54.5°F12.5°C 52.5°F11.4°C 93% Calm Calm -- 29.78 in1008.5 mb 0.00 in0.0 mm 0.00 in/hr0.0 mm/hr 0.00 in0.0 mm
12:45 AM 54.7°F12.6°C 52.7°F11.5°C 93% Calm Calm -- 29.78 in1008.5 mb 0.00 in0.0 mm 0.00 in/hr0.0 mm/hr 0.00 in0.0 mm
12:30 AM 55.0°F12.8°C 53.1°F11.7°C 93% Calm Calm -- 29.78 in1008.5 mb 0.00 in0.0 mm 0.00 in/hr0.0 mm/hr 0.00 in0.0 mm
12:15 AM 55.4°F13.0°C 53.1°F11.7°C 92% Calm Calm -- 29.78 in1008.5 mb 0.00 in0.0 mm 0.00 in/hr0.0 mm/hr 0.00 in0.0 mm
12:00 AM 55.6°F13.1°C 53.3°F11.8°C 92% Calm Calm -- 29.75 in1007.5 mb 0.00 in0.0 mm 0.00 in/hr0.0 mm/hr 0.00 in0.0 mm